West Liberty, Iowa
Current Conditions -  °F | °C
As of 12:55 PM on Thursday 23 Oct 2014 (Local Time) from KMUT Reporting Station
Broken Clouds Broken Clouds  
Wind Chill: 59°   Ceiling: 3300
Heat Index: 59°   Visibility: 10mi
Dew Point: 46°   Wind: 14mph
Humidity: 63%   Direction: 170°S
Pressure: 30.08"   Gusts: NA
Location:  41.57°N, 91.26°W
Report Text: KMUT 231755Z AUTO 17012KT 10SM BKN033 BKN038 BKN049 15/08 A3008 RMK AO2
Loading
Personal Weather Stations






























Interactive Weather Map
Tropical Storm Tracking
New forecast layout! Learn more

10-Day Weather Forecast

Advertisements
Track Severe Weather on mobile